sensor_id;sensor_type;location;lat;lon;timestamp;P1;durP1;ratioP1;P2;durP2;ratioP2
63259;SDS011;49390;51.380;0.098;2023-03-11T00:00:43;16.02;;;7.85;;
63259;SDS011;49390;51.380;0.098;2023-03-11T00:03:24;14.95;;;8.27;;
63259;SDS011;49390;51.380;0.098;2023-03-11T00:05:54;16.35;;;8.05;;
63259;SDS011;49390;51.380;0.098;2023-03-11T00:08:26;13.02;;;7.93;;
63259;SDS011;49390;51.380;0.098;2023-03-11T00:10:55;17.45;;;8.18;;
63259;SDS011;49390;51.380;0.098;2023-03-11T00:13:28;14.52;;;8.32;;
63259;SDS011;49390;51.380;0.098;2023-03-11T00:15:57;14.90;;;8.38;;
63259;SDS011;49390;51.380;0.098;2023-03-11T00:18:28;12.90;;;8.40;;
63259;SDS011;49390;51.380;0.098;2023-03-11T00:20:58;14.60;;;8.35;;
63259;SDS011;49390;51.380;0.098;2023-03-11T00:23:27;15.35;;;8.32;;
63259;SDS011;49390;51.380;0.098;2023-03-11T00:25:58;15.10;;;8.23;;
63259;SDS011;49390;51.380;0.098;2023-03-11T00:28:29;17.38;;;7.35;;
63259;SDS011;49390;51.380;0.098;2023-03-11T00:31:00;18.05;;;8.32;;
63259;SDS011;49390;51.380;0.098;2023-03-11T00:33:29;14.75;;;8.18;;
63259;SDS011;49390;51.380;0.098;2023-03-11T00:35:57;14.63;;;7.95;;
63259;SDS011;49390;51.380;0.098;2023-03-11T00:38:25;17.52;;;8.15;;
63259;SDS011;49390;51.380;0.098;2023-03-11T00:40:53;15.85;;;7.63;;
63259;SDS011;49390;51.380;0.098;2023-03-11T00:43:21;11.80;;;7.82;;
63259;SDS011;49390;51.380;0.098;2023-03-11T00:45:48;15.15;;;8.48;;
63259;SDS011;49390;51.380;0.098;2023-03-11T00:48:16;12.95;;;7.60;;
63259;SDS011;49390;51.380;0.098;2023-03-11T00:50:44;13.65;;;8.05;;
63259;SDS011;49390;51.380;0.098;2023-03-11T00:53:12;14.10;;;8.02;;
63259;SDS011;49390;51.380;0.098;2023-03-11T00:55:40;14.88;;;7.85;;
63259;SDS011;49390;51.380;0.098;2023-03-11T00:58:12;16.55;;;7.82;;
63259;SDS011;49390;51.380;0.098;2023-03-11T01:00:44;18.02;;;7.70;;
63259;SDS011;49390;51.380;0.098;2023-03-11T01:03:12;12.43;;;7.07;;
63259;SDS011;49390;51.380;0.098;2023-03-11T01:05:40;14.20;;;6.95;;
63259;SDS011;49390;51.380;0.098;2023-03-11T01:08:08;14.60;;;7.72;;
63259;SDS011;49390;51.380;0.098;2023-03-11T01:10:36;13.73;;;7.65;;
63259;SDS011;49390;51.380;0.098;2023-03-11T01:13:04;13.35;;;7.82;;
63259;SDS011;49390;51.380;0.098;2023-03-11T01:15:33;14.93;;;7.13;;
63259;SDS011;49390;51.380;0.098;2023-03-11T01:18:03;14.75;;;7.50;;
63259;SDS011;49390;51.380;0.098;2023-03-11T01:20:34;14.93;;;7.88;;
63259;SDS011;49390;51.380;0.098;2023-03-11T01:23:04;15.75;;;8.63;;
63259;SDS011;49390;51.380;0.098;2023-03-11T01:25:33;14.77;;;7.68;;
63259;SDS011;49390;51.380;0.098;2023-03-11T01:28:02;14.00;;;7.40;;
63259;SDS011;49390;51.380;0.098;2023-03-11T01:30:30;16.88;;;7.93;;
63259;SDS011;49390;51.380;0.098;2023-03-11T01:32:58;14.43;;;7.50;;
63259;SDS011;49390;51.380;0.098;2023-03-11T01:35:27;21.90;;;8.43;;
63259;SDS011;49390;51.380;0.098;2023-03-11T01:37:57;15.65;;;7.55;;
63259;SDS011;49390;51.380;0.098;2023-03-11T01:40:30;13.80;;;7.03;;
63259;SDS011;49390;51.380;0.098;2023-03-11T01:43:02;16.23;;;8.23;;
63259;SDS011;49390;51.380;0.098;2023-03-11T01:48:20;14.25;;;7.72;;
63259;SDS011;49390;51.380;0.098;2023-03-11T01:50:48;13.50;;;7.78;;
63259;SDS011;49390;51.380;0.098;2023-03-11T01:53:17;14.30;;;7.72;;
63259;SDS011;49390;51.380;0.098;2023-03-11T01:55:46;17.80;;;8.00;;
63259;SDS011;49390;51.380;0.098;2023-03-11T01:58:17;15.18;;;7.55;;
63259;SDS011;49390;51.380;0.098;2023-03-11T02:00:51;17.15;;;7.93;;
63259;SDS011;49390;51.380;0.098;2023-03-11T02:03:25;18.30;;;8.68;;
63259;SDS011;49390;51.380;0.098;2023-03-11T02:05:58;13.95;;;7.28;;
63259;SDS011;49390;51.380;0.098;2023-03-11T02:08:29;13.73;;;7.85;;
63259;SDS011;49390;51.380;0.098;2023-03-11T02:11:03;14.77;;;8.00;;
63259;SDS011;49390;51.380;0.098;2023-03-11T02:13:34;15.13;;;7.35;;
63259;SDS011;49390;51.380;0.098;2023-03-11T02:16:03;15.18;;;8.15;;
63259;SDS011;49390;51.380;0.098;2023-03-11T02:18:32;13.63;;;7.57;;
63259;SDS011;49390;51.380;0.098;2023-03-11T02:29:04;12.18;;;6.68;;
63259;SDS011;49390;51.380;0.098;2023-03-11T02:31:36;14.23;;;7.18;;
63259;SDS011;49390;51.380;0.098;2023-03-11T02:34:12;12.75;;;6.80;;
63259;SDS011;49390;51.380;0.098;2023-03-11T02:36:49;12.23;;;6.35;;
63259;SDS011;49390;51.380;0.098;2023-03-11T02:42:25;11.82;;;6.00;;
63259;SDS011;49390;51.380;0.098;2023-03-11T02:44:59;12.85;;;6.30;;
63259;SDS011;49390;51.380;0.098;2023-03-11T02:47:34;13.35;;;6.90;;
63259;SDS011;49390;51.380;0.098;2023-03-11T02:50:05;16.05;;;7.00;;
63259;SDS011;49390;51.380;0.098;2023-03-11T02:52:35;14.60;;;6.85;;
63259;SDS011;49390;51.380;0.098;2023-03-11T02:55:03;13.82;;;6.65;;
63259;SDS011;49390;51.380;0.098;2023-03-11T02:57:33;10.68;;;6.32;;
63259;SDS011;49390;51.380;0.098;2023-03-11T03:00:05;11.88;;;6.50;;
63259;SDS011;49390;51.380;0.098;2023-03-11T03:02:57;13.30;;;6.55;;
63259;SDS011;49390;51.380;0.098;2023-03-11T03:05:26;13.65;;;6.88;;
63259;SDS011;49390;51.380;0.098;2023-03-11T03:07:57;15.70;;;6.70;;
63259;SDS011;49390;51.380;0.098;2023-03-11T03:10:25;12.88;;;6.00;;
63259;SDS011;49390;51.380;0.098;2023-03-11T03:12:53;12.57;;;6.38;;
63259;SDS011;49390;51.380;0.098;2023-03-11T03:15:22;14.70;;;6.95;;
63259;SDS011;49390;51.380;0.098;2023-03-11T03:17:50;11.73;;;6.95;;
63259;SDS011;49390;51.380;0.098;2023-03-11T03:20:20;11.23;;;6.18;;
63259;SDS011;49390;51.380;0.098;2023-03-11T03:22:52;11.63;;;5.75;;
63259;SDS011;49390;51.380;0.098;2023-03-11T03:25:24;16.10;;;6.93;;
63259;SDS011;49390;51.380;0.098;2023-03-11T03:27:54;13.38;;;6.78;;
63259;SDS011;49390;51.380;0.098;2023-03-11T03:30:23;14.60;;;6.43;;
63259;SDS011;49390;51.380;0.098;2023-03-11T03:32:53;14.38;;;6.85;;
63259;SDS011;49390;51.380;0.098;2023-03-11T03:35:21;14.98;;;6.68;;
63259;SDS011;49390;51.380;0.098;2023-03-11T03:37:58;12.27;;;6.63;;
63259;SDS011;49390;51.380;0.098;2023-03-11T03:40:27;11.50;;;6.57;;
63259;SDS011;49390;51.380;0.098;2023-03-11T03:42:57;11.70;;;5.70;;
63259;SDS011;49390;51.380;0.098;2023-03-11T03:45:26;14.07;;;6.68;;
63259;SDS011;49390;51.380;0.098;2023-03-11T03:47:57;13.77;;;6.75;;
63259;SDS011;49390;51.380;0.098;2023-03-11T03:50:26;11.65;;;5.85;;
63259;SDS011;49390;51.380;0.098;2023-03-11T03:52:56;12.57;;;6.35;;
63259;SDS011;49390;51.380;0.098;2023-03-11T03:55:27;9.73;;;6.28;;
63259;SDS011;49390;51.380;0.098;2023-03-11T03:57:57;12.80;;;6.15;;
63259;SDS011;49390;51.380;0.098;2023-03-11T04:00:29;14.52;;;6.45;;
63259;SDS011;49390;51.380;0.098;2023-03-11T04:03:01;12.82;;;5.93;;
63259;SDS011;49390;51.380;0.098;2023-03-11T04:05:47;10.48;;;6.05;;
63259;SDS011;49390;51.380;0.098;2023-03-11T04:08:15;12.33;;;7.23;;
63259;SDS011;49390;51.380;0.098;2023-03-11T04:10:44;15.60;;;6.53;;
63259;SDS011;49390;51.380;0.098;2023-03-11T04:13:22;8.98;;;5.55;;
63259;SDS011;49390;51.380;0.098;2023-03-11T04:15:50;13.68;;;6.35;;
63259;SDS011;49390;51.380;0.098;2023-03-11T04:18:18;10.57;;;6.28;;
63259;SDS011;49390;51.380;0.098;2023-03-11T04:20:46;11.43;;;6.55;;
63259;SDS011;49390;51.380;0.098;2023-03-11T04:23:15;14.48;;;6.50;;
63259;SDS011;49390;51.380;0.098;2023-03-11T04:25:43;13.48;;;5.68;;
63259;SDS011;49390;51.380;0.098;2023-03-11T04:28:11;14.43;;;6.35;;
63259;SDS011;49390;51.380;0.098;2023-03-11T04:30:39;13.05;;;6.10;;
63259;SDS011;49390;51.380;0.098;2023-03-11T04:33:09;13.70;;;6.45;;
63259;SDS011;49390;51.380;0.098;2023-03-11T04:35:37;11.48;;;5.60;;
63259;SDS011;49390;51.380;0.098;2023-03-11T04:38:06;13.02;;;6.25;;
63259;SDS011;49390;51.380;0.098;2023-03-11T04:40:37;10.97;;;5.73;;
63259;SDS011;49390;51.380;0.098;2023-03-11T04:43:05;12.35;;;5.70;;
63259;SDS011;49390;51.380;0.098;2023-03-11T04:45:33;9.40;;;6.00;;
63259;SDS011;49390;51.380;0.098;2023-03-11T04:48:04;14.13;;;6.22;;
63259;SDS011;49390;51.380;0.098;2023-03-11T04:50:37;11.68;;;5.85;;
63259;SDS011;49390;51.380;0.098;2023-03-11T04:53:05;14.48;;;6.18;;
63259;SDS011;49390;51.380;0.098;2023-03-11T04:55:33;11.90;;;5.72;;
63259;SDS011;49390;51.380;0.098;2023-03-11T04:58:01;9.15;;;5.50;;
63259;SDS011;49390;51.380;0.098;2023-03-11T05:00:30;13.32;;;5.82;;
63259;SDS011;49390;51.380;0.098;2023-03-11T05:03:06;12.45;;;6.35;;
63259;SDS011;49390;51.380;0.098;2023-03-11T05:05:34;11.88;;;6.05;;
63259;SDS011;49390;51.380;0.098;2023-03-11T05:08:02;11.25;;;5.80;;
63259;SDS011;49390;51.380;0.098;2023-03-11T05:10:31;10.90;;;5.55;;
63259;SDS011;49390;51.380;0.098;2023-03-11T05:13:05;11.88;;;6.07;;
63259;SDS011;49390;51.380;0.098;2023-03-11T05:15:36;9.23;;;4.68;;
63259;SDS011;49390;51.380;0.098;2023-03-11T05:18:05;10.82;;;6.32;;
63259;SDS011;49390;51.380;0.098;2023-03-11T05:20:35;16.38;;;6.05;;
63259;SDS011;49390;51.380;0.098;2023-03-11T05:23:04;9.48;;;5.47;;
63259;SDS011;49390;51.380;0.098;2023-03-11T05:25:34;9.20;;;5.50;;
63259;SDS011;49390;51.380;0.098;2023-03-11T05:28:04;12.05;;;6.13;;
63259;SDS011;49390;51.380;0.098;2023-03-11T05:30:35;10.60;;;4.90;;
63259;SDS011;49390;51.380;0.098;2023-03-11T05:33:04;12.27;;;5.18;;
63259;SDS011;49390;51.380;0.098;2023-03-11T05:35:32;9.02;;;4.50;;
63259;SDS011;49390;51.380;0.098;2023-03-11T05:38:00;11.27;;;4.50;;
63259;SDS011;49390;51.380;0.098;2023-03-11T05:40:30;8.85;;;5.50;;
63259;SDS011;49390;51.380;0.098;2023-03-11T05:42:58;10.75;;;5.13;;
63259;SDS011;49390;51.380;0.098;2023-03-11T05:45:29;10.90;;;5.28;;
63259;SDS011;49390;51.380;0.098;2023-03-11T05:48:00;12.03;;;4.83;;
63259;SDS011;49390;51.380;0.098;2023-03-11T05:50:30;10.93;;;4.97;;
63259;SDS011;49390;51.380;0.098;2023-03-11T05:53:00;9.68;;;5.18;;
63259;SDS011;49390;51.380;0.098;2023-03-11T05:55:30;8.90;;;5.15;;
63259;SDS011;49390;51.380;0.098;2023-03-11T05:57:59;10.48;;;4.82;;
63259;SDS011;49390;51.380;0.098;2023-03-11T06:00:27;10.55;;;5.22;;
63259;SDS011;49390;51.380;0.098;2023-03-11T06:05:26;8.68;;;4.32;;
63259;SDS011;49390;51.380;0.098;2023-03-11T06:07:55;11.38;;;4.90;;
63259;SDS011;49390;51.380;0.098;2023-03-11T06:10:23;13.25;;;4.60;;
63259;SDS011;49390;51.380;0.098;2023-03-11T06:12:51;8.48;;;4.20;;
63259;SDS011;49390;51.380;0.098;2023-03-11T06:15:25;7.32;;;4.00;;
63259;SDS011;49390;51.380;0.098;2023-03-11T06:17:54;6.03;;;3.33;;
63259;SDS011;49390;51.380;0.098;2023-03-11T06:20:22;8.52;;;3.33;;
63259;SDS011;49390;51.380;0.098;2023-03-11T06:22:50;6.85;;;3.47;;
63259;SDS011;49390;51.380;0.098;2023-03-11T06:25:21;5.97;;;2.97;;
63259;SDS011;49390;51.380;0.098;2023-03-11T06:27:51;6.95;;;3.17;;
63259;SDS011;49390;51.380;0.098;2023-03-11T06:30:20;7.63;;;3.28;;
63259;SDS011;49390;51.380;0.098;2023-03-11T06:33:05;5.72;;;2.92;;
63259;SDS011;49390;51.380;0.098;2023-03-11T06:35:33;7.80;;;3.08;;
63259;SDS011;49390;51.380;0.098;2023-03-11T06:38:01;4.90;;;2.60;;
63259;SDS011;49390;51.380;0.098;2023-03-11T06:40:29;7.70;;;2.80;;
63259;SDS011;49390;51.380;0.098;2023-03-11T06:42:57;9.93;;;3.78;;
63259;SDS011;49390;51.380;0.098;2023-03-11T06:45:28;8.25;;;4.00;;
63259;SDS011;49390;51.380;0.098;2023-03-11T06:47:56;10.77;;;4.22;;
63259;SDS011;49390;51.380;0.098;2023-03-11T06:50:24;7.95;;;4.50;;
63259;SDS011;49390;51.380;0.098;2023-03-11T06:52:59;8.13;;;4.30;;
63259;SDS011;49390;51.380;0.098;2023-03-11T06:55:28;8.50;;;4.03;;
63259;SDS011;49390;51.380;0.098;2023-03-11T06:57:59;8.50;;;3.40;;
63259;SDS011;49390;51.380;0.098;2023-03-11T07:00:27;6.80;;;3.20;;
63259;SDS011;49390;51.380;0.098;2023-03-11T07:02:59;7.88;;;2.95;;
63259;SDS011;49390;51.380;0.098;2023-03-11T07:05:27;7.80;;;3.20;;
63259;SDS011;49390;51.380;0.098;2023-03-11T07:07:59;5.28;;;2.58;;
63259;SDS011;49390;51.380;0.098;2023-03-11T07:10:28;8.82;;;3.03;;
63259;SDS011;49390;51.380;0.098;2023-03-11T07:12:56;10.13;;;3.00;;
63259;SDS011;49390;51.380;0.098;2023-03-11T07:15:24;6.18;;;2.65;;
63259;SDS011;49390;51.380;0.098;2023-03-11T07:17:53;7.97;;;2.60;;
63259;SDS011;49390;51.380;0.098;2023-03-11T07:20:21;10.35;;;3.00;;
63259;SDS011;49390;51.380;0.098;2023-03-11T07:22:49;6.05;;;2.67;;
63259;SDS011;49390;51.380;0.098;2023-03-11T07:25:17;6.75;;;2.70;;
63259;SDS011;49390;51.380;0.098;2023-03-11T07:27:45;5.15;;;2.38;;
63259;SDS011;49390;51.380;0.098;2023-03-11T07:30:15;6.18;;;2.30;;
63259;SDS011;49390;51.380;0.098;2023-03-11T07:35:14;5.53;;;2.33;;
63259;SDS011;49390;51.380;0.098;2023-03-11T07:37:42;8.68;;;2.78;;
63259;SDS011;49390;51.380;0.098;2023-03-11T07:40:10;8.55;;;3.30;;
63259;SDS011;49390;51.380;0.098;2023-03-11T07:42:41;5.73;;;2.60;;
63259;SDS011;49390;51.380;0.098;2023-03-11T07:45:10;5.90;;;2.80;;
63259;SDS011;49390;51.380;0.098;2023-03-11T07:47:39;5.93;;;2.55;;
63259;SDS011;49390;51.380;0.098;2023-03-11T07:50:07;5.93;;;2.65;;
63259;SDS011;49390;51.380;0.098;2023-03-11T07:52:36;6.57;;;2.30;;
63259;SDS011;49390;51.380;0.098;2023-03-11T07:55:04;5.60;;;2.75;;
63259;SDS011;49390;51.380;0.098;2023-03-11T07:57:32;7.72;;;2.90;;
63259;SDS011;49390;51.380;0.098;2023-03-11T08:00:00;6.38;;;2.78;;
63259;SDS011;49390;51.380;0.098;2023-03-11T08:02:38;7.97;;;3.30;;
63259;SDS011;49390;51.380;0.098;2023-03-11T08:05:06;7.82;;;3.42;;
63259;SDS011;49390;51.380;0.098;2023-03-11T08:07:34;6.13;;;2.75;;
63259;SDS011;49390;51.380;0.098;2023-03-11T08:10:02;6.43;;;3.20;;
63259;SDS011;49390;51.380;0.098;2023-03-11T08:12:33;6.55;;;3.45;;
63259;SDS011;49390;51.380;0.098;2023-03-11T08:15:01;7.07;;;3.22;;
63259;SDS011;49390;51.380;0.098;2023-03-11T08:17:29;7.70;;;3.30;;
63259;SDS011;49390;51.380;0.098;2023-03-11T08:19:58;7.93;;;3.40;;
63259;SDS011;49390;51.380;0.098;2023-03-11T08:22:26;7.85;;;3.22;;
63259;SDS011;49390;51.380;0.098;2023-03-11T08:24:53;7.50;;;3.20;;
63259;SDS011;49390;51.380;0.098;2023-03-11T08:27:22;8.15;;;3.50;;
63259;SDS011;49390;51.380;0.098;2023-03-11T08:29:50;8.32;;;3.20;;
63259;SDS011;49390;51.380;0.098;2023-03-11T08:32:20;5.85;;;3.20;;
63259;SDS011;49390;51.380;0.098;2023-03-11T08:34:48;8.38;;;3.10;;
63259;SDS011;49390;51.380;0.098;2023-03-11T08:37:16;6.38;;;3.13;;
63259;SDS011;49390;51.380;0.098;2023-03-11T08:39:44;7.75;;;3.75;;
63259;SDS011;49390;51.380;0.098;2023-03-11T08:42:12;7.15;;;3.10;;
63259;SDS011;49390;51.380;0.098;2023-03-11T08:44:40;7.28;;;3.50;;
63259;SDS011;49390;51.380;0.098;2023-03-11T08:47:08;12.35;;;3.65;;
63259;SDS011;49390;51.380;0.098;2023-03-11T08:49:36;6.72;;;2.80;;
63259;SDS011;49390;51.380;0.098;2023-03-11T08:52:05;6.97;;;2.90;;
63259;SDS011;49390;51.380;0.098;2023-03-11T08:54:32;7.15;;;2.95;;
63259;SDS011;49390;51.380;0.098;2023-03-11T08:57:03;6.65;;;2.70;;
63259;SDS011;49390;51.380;0.098;2023-03-11T08:59:31;5.88;;;2.65;;
63259;SDS011;49390;51.380;0.098;2023-03-11T09:04:30;6.90;;;3.70;;
63259;SDS011;49390;51.380;0.098;2023-03-11T09:06:58;8.38;;;3.13;;
63259;SDS011;49390;51.380;0.098;2023-03-11T09:09:26;6.75;;;2.97;;
63259;SDS011;49390;51.380;0.098;2023-03-11T09:11:54;5.97;;;2.70;;
63259;SDS011;49390;51.380;0.098;2023-03-11T09:14:22;5.75;;;2.53;;
63259;SDS011;49390;51.380;0.098;2023-03-11T09:16:52;5.40;;;2.72;;
63259;SDS011;49390;51.380;0.098;2023-03-11T09:19:20;7.40;;;2.80;;
63259;SDS011;49390;51.380;0.098;2023-03-11T09:21:48;7.50;;;2.90;;
63259;SDS011;49390;51.380;0.098;2023-03-11T09:24:16;6.53;;;2.25;;
63259;SDS011;49390;51.380;0.098;2023-03-11T09:26:44;8.32;;;2.60;;
63259;SDS011;49390;51.380;0.098;2023-03-11T09:29:12;5.10;;;2.55;;
63259;SDS011;49390;51.380;0.098;2023-03-11T09:31:40;9.48;;;2.67;;
63259;SDS011;49390;51.380;0.098;2023-03-11T09:34:09;8.63;;;2.90;;
63259;SDS011;49390;51.380;0.098;2023-03-11T09:36:41;5.53;;;2.83;;
63259;SDS011;49390;51.380;0.098;2023-03-11T09:39:09;6.88;;;2.33;;
63259;SDS011;49390;51.380;0.098;2023-03-11T09:41:54;5.95;;;2.10;;
63259;SDS011;49390;51.380;0.098;2023-03-11T10:01:11;3.03;;;1.55;;
63259;SDS011;49390;51.380;0.098;2023-03-11T10:04:02;5.95;;;1.58;;
63259;SDS011;49390;51.380;0.098;2023-03-11T10:06:36;3.90;;;1.75;;
63259;SDS011;49390;51.380;0.098;2023-03-11T10:09:28;3.70;;;1.40;;
63259;SDS011;49390;51.380;0.098;2023-03-11T10:15:04;3.97;;;1.40;;
63259;SDS011;49390;51.380;0.098;2023-03-11T10:31:25;7.35;;;1.90;;
63259;SDS011;49390;51.380;0.098;2023-03-11T10:34:01;6.47;;;2.10;;
63259;SDS011;49390;51.380;0.098;2023-03-11T10:37:09;4.85;;;2.20;;
63259;SDS011;49390;51.380;0.098;2023-03-11T10:39:38;5.28;;;1.92;;
63259;SDS011;49390;51.380;0.098;2023-03-11T10:42:13;5.13;;;2.10;;
63259;SDS011;49390;51.380;0.098;2023-03-11T10:44:45;6.38;;;1.83;;
63259;SDS011;49390;51.380;0.098;2023-03-11T10:47:23;4.57;;;1.90;;
63259;SDS011;49390;51.380;0.098;2023-03-11T10:50:00;6.80;;;2.30;;
63259;SDS011;49390;51.380;0.098;2023-03-11T10:52:28;4.55;;;1.70;;
63259;SDS011;49390;51.380;0.098;2023-03-11T10:54:59;3.78;;;1.90;;
63259;SDS011;49390;51.380;0.098;2023-03-11T10:57:33;10.98;;;1.98;;
63259;SDS011;49390;51.380;0.098;2023-03-11T11:00:05;5.63;;;2.28;;
63259;SDS011;49390;51.380;0.098;2023-03-11T11:02:53;5.57;;;2.00;;
63259;SDS011;49390;51.380;0.098;2023-03-11T11:05:28;5.25;;;2.03;;
63259;SDS011;49390;51.380;0.098;2023-03-11T11:08:06;5.88;;;2.03;;
63259;SDS011;49390;51.380;0.098;2023-03-11T11:10:47;4.43;;;1.95;;
63259;SDS011;49390;51.380;0.098;2023-03-11T11:13:24;6.70;;;2.10;;
63259;SDS011;49390;51.380;0.098;2023-03-11T11:21:16;7.30;;;2.20;;
63259;SDS011;49390;51.380;0.098;2023-03-11T11:29:38;4.47;;;2.22;;
63259;SDS011;49390;51.380;0.098;2023-03-11T11:34:56;6.70;;;2.45;;
63259;SDS011;49390;51.380;0.098;2023-03-11T11:37:26;6.22;;;2.30;;
63259;SDS011;49390;51.380;0.098;2023-03-11T11:40:03;5.75;;;2.67;;
63259;SDS011;49390;51.380;0.098;2023-03-11T11:42:46;7.07;;;2.17;;
63259;SDS011;49390;51.380;0.098;2023-03-11T11:45:28;7.80;;;2.50;;
63259;SDS011;49390;51.380;0.098;2023-03-11T11:50:44;7.07;;;2.60;;
63259;SDS011;49390;51.380;0.098;2023-03-11T11:53:27;6.43;;;2.38;;
63259;SDS011;49390;51.380;0.098;2023-03-11T11:56:03;5.18;;;2.20;;
63259;SDS011;49390;51.380;0.098;2023-03-11T11:58:31;5.50;;;2.65;;
63259;SDS011;49390;51.380;0.098;2023-03-11T12:09:17;7.28;;;1.77;;
63259;SDS011;49390;51.380;0.098;2023-03-11T12:12:00;7.30;;;2.40;;
63259;SDS011;49390;51.380;0.098;2023-03-11T12:14:51;7.43;;;2.00;;
63259;SDS011;49390;51.380;0.098;2023-03-11T12:17:41;4.55;;;1.70;;
63259;SDS011;49390;51.380;0.098;2023-03-11T12:31:35;3.55;;;1.65;;
63259;SDS011;49390;51.380;0.098;2023-03-11T12:34:06;4.20;;;1.70;;
63259;SDS011;49390;51.380;0.098;2023-03-11T12:36:39;4.70;;;2.17;;
63259;SDS011;49390;51.380;0.098;2023-03-11T12:39:20;5.07;;;2.00;;
63259;SDS011;49390;51.380;0.098;2023-03-11T12:44:39;4.78;;;2.20;;
63259;SDS011;49390;51.380;0.098;2023-03-11T12:47:24;4.78;;;1.80;;
63259;SDS011;49390;51.380;0.098;2023-03-11T12:50:28;7.68;;;1.85;;
63259;SDS011;49390;51.380;0.098;2023-03-11T12:53:01;6.80;;;1.80;;
63259;SDS011;49390;51.380;0.098;2023-03-11T12:55:31;6.70;;;1.75;;
63259;SDS011;49390;51.380;0.098;2023-03-11T12:58:10;4.53;;;1.55;;
63259;SDS011;49390;51.380;0.098;2023-03-11T13:01:02;3.17;;;1.75;;
63259;SDS011;49390;51.380;0.098;2023-03-11T13:03:45;6.80;;;2.08;;
63259;SDS011;49390;51.380;0.098;2023-03-11T13:09:12;3.80;;;1.40;;
63259;SDS011;49390;51.380;0.098;2023-03-11T13:11:43;2.08;;;1.50;;
63259;SDS011;49390;51.380;0.098;2023-03-11T13:14:24;4.15;;;1.40;;
63259;SDS011;49390;51.380;0.098;2023-03-11T13:19:54;1.33;;;1.20;;
63259;SDS011;49390;51.380;0.098;2023-03-11T13:22:40;4.40;;;1.55;;
63259;SDS011;49390;51.380;0.098;2023-03-11T13:25:37;4.07;;;1.60;;
63259;SDS011;49390;51.380;0.098;2023-03-11T13:31:07;2.88;;;1.35;;
63259;SDS011;49390;51.380;0.098;2023-03-11T13:40:15;5.60;;;1.80;;
63259;SDS011;49390;51.380;0.098;2023-03-11T13:45:21;4.38;;;2.00;;
63259;SDS011;49390;51.380;0.098;2023-03-11T13:51:03;6.55;;;2.33;;
63259;SDS011;49390;51.380;0.098;2023-03-11T13:56:50;5.28;;;1.70;;
63259;SDS011;49390;51.380;0.098;2023-03-11T13:59:25;5.80;;;1.75;;
63259;SDS011;49390;51.380;0.098;2023-03-11T14:01:59;3.65;;;1.80;;
63259;SDS011;49390;51.380;0.098;2023-03-11T14:04:34;4.95;;;1.40;;
63259;SDS011;49390;51.380;0.098;2023-03-11T14:07:13;3.20;;;1.63;;
63259;SDS011;49390;51.380;0.098;2023-03-11T14:12:46;4.80;;;1.67;;
63259;SDS011;49390;51.380;0.098;2023-03-11T14:15:17;7.13;;;1.80;;
63259;SDS011;49390;51.380;0.098;2023-03-11T14:17:53;2.72;;;1.58;;
63259;SDS011;49390;51.380;0.098;2023-03-11T14:20:50;4.07;;;1.65;;
63259;SDS011;49390;51.380;0.098;2023-03-11T14:23:18;4.43;;;1.67;;
63259;SDS011;49390;51.380;0.098;2023-03-11T14:25:47;7.15;;;2.47;;
63259;SDS011;49390;51.380;0.098;2023-03-11T14:28:31;4.63;;;1.70;;
63259;SDS011;49390;51.380;0.098;2023-03-11T14:31:02;3.80;;;1.55;;
63259;SDS011;49390;51.380;0.098;2023-03-11T14:33:31;3.55;;;1.60;;
63259;SDS011;49390;51.380;0.098;2023-03-11T14:36:05;6.28;;;2.00;;
63259;SDS011;49390;51.380;0.098;2023-03-11T14:38:41;2.97;;;1.42;;
63259;SDS011;49390;51.380;0.098;2023-03-11T14:41:11;4.40;;;1.80;;
63259;SDS011;49390;51.380;0.098;2023-03-11T14:43:41;7.80;;;1.98;;
63259;SDS011;49390;51.380;0.098;2023-03-11T14:46:17;2.72;;;1.92;;
63259;SDS011;49390;51.380;0.098;2023-03-11T14:48:54;5.15;;;2.00;;
63259;SDS011;49390;51.380;0.098;2023-03-11T14:51:26;6.65;;;1.80;;
63259;SDS011;49390;51.380;0.098;2023-03-11T14:54:02;2.38;;;1.45;;
63259;SDS011;49390;51.380;0.098;2023-03-11T14:56:38;3.33;;;1.65;;
63259;SDS011;49390;51.380;0.098;2023-03-11T14:59:13;5.18;;;1.50;;
63259;SDS011;49390;51.380;0.098;2023-03-11T15:01:48;5.35;;;1.95;;
63259;SDS011;49390;51.380;0.098;2023-03-11T15:06:59;5.28;;;1.85;;
63259;SDS011;49390;51.380;0.098;2023-03-11T15:09:30;5.50;;;1.90;;
63259;SDS011;49390;51.380;0.098;2023-03-11T15:12:00;3.85;;;1.80;;
63259;SDS011;49390;51.380;0.098;2023-03-11T15:14:31;4.20;;;1.83;;
63259;SDS011;49390;51.380;0.098;2023-03-11T15:20:21;4.00;;;1.83;;
63259;SDS011;49390;51.380;0.098;2023-03-11T15:22:54;4.75;;;2.08;;
63259;SDS011;49390;51.380;0.098;2023-03-11T15:25:36;5.20;;;1.90;;
63259;SDS011;49390;51.380;0.098;2023-03-11T15:28:41;6.25;;;2.20;;
63259;SDS011;49390;51.380;0.098;2023-03-11T15:34:20;4.40;;;1.65;;
63259;SDS011;49390;51.380;0.098;2023-03-11T15:36:59;4.45;;;1.55;;
63259;SDS011;49390;51.380;0.098;2023-03-11T15:44:48;6.65;;;2.67;;
63259;SDS011;49390;51.380;0.098;2023-03-11T15:47:21;5.55;;;2.90;;
63259;SDS011;49390;51.380;0.098;2023-03-11T15:49:50;7.63;;;2.90;;
63259;SDS011;49390;51.380;0.098;2023-03-11T15:52:21;4.38;;;2.40;;
63259;SDS011;49390;51.380;0.098;2023-03-11T15:54:49;6.30;;;2.63;;
63259;SDS011;49390;51.380;0.098;2023-03-11T15:59:54;4.15;;;1.92;;
63259;SDS011;49390;51.380;0.098;2023-03-11T16:02:24;6.68;;;2.08;;
63259;SDS011;49390;51.380;0.098;2023-03-11T16:04:55;4.10;;;2.10;;
63259;SDS011;49390;51.380;0.098;2023-03-11T16:07:24;4.93;;;1.98;;
63259;SDS011;49390;51.380;0.098;2023-03-11T16:12:34;5.72;;;2.20;;
63259;SDS011;49390;51.380;0.098;2023-03-11T16:15:03;4.95;;;2.20;;
63259;SDS011;49390;51.380;0.098;2023-03-11T16:17:32;5.45;;;1.90;;
63259;SDS011;49390;51.380;0.098;2023-03-11T16:20:17;3.58;;;2.00;;
63259;SDS011;49390;51.380;0.098;2023-03-11T16:22:46;6.13;;;2.00;;
63259;SDS011;49390;51.380;0.098;2023-03-11T16:27:53;4.07;;;1.90;;
63259;SDS011;49390;51.380;0.098;2023-03-11T16:30:22;6.57;;;2.55;;
63259;SDS011;49390;51.380;0.098;2023-03-11T16:32:51;6.88;;;2.40;;
63259;SDS011;49390;51.380;0.098;2023-03-11T16:35:19;3.67;;;2.00;;
63259;SDS011;49390;51.380;0.098;2023-03-11T16:37:47;4.05;;;2.10;;
63259;SDS011;49390;51.380;0.098;2023-03-11T16:40:16;4.60;;;2.00;;
63259;SDS011;49390;51.380;0.098;2023-03-11T16:42:49;6.15;;;2.25;;
63259;SDS011;49390;51.380;0.098;2023-03-11T16:45:20;6.97;;;2.40;;
63259;SDS011;49390;51.380;0.098;2023-03-11T16:47:48;6.40;;;2.50;;
63259;SDS011;49390;51.380;0.098;2023-03-11T16:50:16;4.38;;;2.17;;
63259;SDS011;49390;51.380;0.098;2023-03-11T16:52:44;5.70;;;1.88;;
63259;SDS011;49390;51.380;0.098;2023-03-11T16:55:13;6.43;;;2.08;;
63259;SDS011;49390;51.380;0.098;2023-03-11T16:57:40;4.90;;;1.92;;
63259;SDS011;49390;51.380;0.098;2023-03-11T17:00:15;5.47;;;2.30;;
63259;SDS011;49390;51.380;0.098;2023-03-11T17:03:19;3.67;;;1.85;;
63259;SDS011;49390;51.380;0.098;2023-03-11T17:06:04;4.45;;;1.90;;
63259;SDS011;49390;51.380;0.098;2023-03-11T17:08:35;5.20;;;1.90;;
63259;SDS011;49390;51.380;0.098;2023-03-11T17:11:07;4.15;;;1.70;;
63259;SDS011;49390;51.380;0.098;2023-03-11T17:13:45;3.50;;;1.70;;
63259;SDS011;49390;51.380;0.098;2023-03-11T17:16:18;7.20;;;3.25;;
63259;SDS011;49390;51.380;0.098;2023-03-11T17:21:11;4.05;;;2.20;;
63259;SDS011;49390;51.380;0.098;2023-03-11T17:24:10;4.32;;;1.88;;
63259;SDS011;49390;51.380;0.098;2023-03-11T17:26:38;6.55;;;2.60;;
63259;SDS011;49390;51.380;0.098;2023-03-11T17:29:08;10.18;;;5.15;;
63259;SDS011;49390;51.380;0.098;2023-03-11T17:31:36;17.20;;;8.45;;
63259;SDS011;49390;51.380;0.098;2023-03-11T17:34:07;18.02;;;2.35;;
63259;SDS011;49390;51.380;0.098;2023-03-11T17:36:34;7.97;;;2.42;;